createdAt,value
2022-10-11T00:00:49.441Z,80.31005859
2022-10-11T00:01:49.921Z,80.21240234
2022-10-11T00:02:50.575Z,80.10864258
2022-10-11T00:03:51.057Z,80.01098633
2022-10-11T00:04:51.549Z,79.90722656
2022-10-11T00:05:52.079Z,79.90722656
2022-10-11T00:06:52.551Z,79.8034668
2022-10-11T00:07:53.075Z,79.8034668
2022-10-11T00:08:53.555Z,79.8034668
2022-10-11T00:09:54.075Z,79.8034668
2022-10-11T00:10:54.601Z,79.8034668
2022-10-11T00:11:55.889Z,79.70581055
2022-10-11T00:12:56.377Z,79.70581055
2022-10-11T00:13:56.890Z,79.60205078
2022-10-11T00:14:57.446Z,79.60205078
2022-10-11T00:15:57.938Z,79.60205078
2022-10-11T00:16:58.424Z,79.50439453
2022-10-11T00:18:03.244Z,79.296875
2022-10-11T00:18:59.472Z,79.296875
2022-10-11T00:20:00.654Z,79.296875
2022-10-11T00:21:01.210Z,79.50439453
2022-10-11T00:22:01.703Z,79.70581055
2022-10-11T00:23:02.227Z,79.94384766
2022-10-11T00:24:02.758Z,80.04760742
2022-10-11T00:25:03.931Z,80.14526367
2022-10-11T00:26:04.840Z,80.04760742
2022-10-11T00:27:05.043Z,80.04760742
2022-10-11T00:28:05.536Z,79.84619141
2022-10-11T00:29:06.063Z,80.04760742
2022-10-11T00:30:37.921Z,79.94384766
2022-10-11T00:31:38.448Z,80.04760742
2022-10-11T00:32:38.946Z,80.24902344
2022-10-11T00:33:39.424Z,80.24902344
2022-10-11T00:34:39.947Z,80.14526367
2022-10-11T00:35:40.429Z,80.24902344
2022-10-11T00:36:40.975Z,80.45043945
2022-10-11T00:37:41.396Z,80.45043945
2022-10-11T00:38:41.920Z,80.45043945
2022-10-11T00:39:42.389Z,80.45043945
2022-10-11T00:40:43.413Z,80.45043945
2022-10-11T00:41:43.909Z,80.45043945
2022-10-11T00:42:44.372Z,80.45043945
2022-10-11T00:43:44.898Z,80.3527832
2022-10-11T00:44:45.386Z,80.14526367
2022-10-11T00:45:45.924Z,80.04760742
2022-10-11T00:46:46.463Z,80.14526367
2022-10-11T00:47:46.944Z,80.3527832
2022-10-11T00:48:47.452Z,80.24902344
2022-10-11T00:49:47.929Z,80.24902344
2022-10-11T00:50:49.468Z,80.24902344
2022-10-11T00:51:49.999Z,80.3527832
2022-10-11T00:52:50.545Z,80.3527832
2022-10-11T00:53:51.085Z,80.45043945
2022-10-11T00:54:51.580Z,80.45043945
2022-10-11T00:55:52.125Z,80.3527832
2022-10-11T00:56:52.684Z,80.14526367
2022-10-11T00:57:53.128Z,79.94384766
2022-10-11T00:58:53.660Z,79.94384766
2022-10-11T00:59:54.156Z,80.04760742
2022-10-11T01:00:55.545Z,80.24902344
2022-10-11T01:01:55.959Z,80.3527832
2022-10-11T01:02:56.426Z,80.45043945
2022-10-11T01:03:56.958Z,80.45043945
2022-10-11T01:05:25.250Z,80.3527832
2022-10-11T01:05:57.984Z,80.24902344
2022-10-11T01:06:58.534Z,80.3527832
2022-10-11T01:07:59.672Z,80.3527832
2022-10-11T01:09:00.185Z,80.3527832
2022-10-11T01:10:00.745Z,80.24902344
2022-10-11T01:11:01.888Z,80.24902344
2022-10-11T01:12:02.443Z,80.24902344
2022-10-11T01:13:02.930Z,80.24902344
2022-10-11T01:14:03.508Z,80.3894043
2022-10-11T01:15:03.996Z,80.48706055
2022-10-11T01:16:04.734Z,80.59082031
2022-10-11T01:17:04.946Z,80.48706055
2022-10-11T01:18:05.417Z,80.3894043
2022-10-11T01:19:36.412Z,80.28564453
2022-10-11T01:20:37.661Z,80.3894043
2022-10-11T01:21:38.149Z,80.24902344
2022-10-11T01:22:38.642Z,80.18798828
2022-10-11T01:23:39.105Z,80.18798828
2022-10-11T01:24:40.170Z,80.28564453
2022-10-11T01:25:40.689Z,80.3894043
2022-10-11T01:26:41.197Z,80.48706055
2022-10-11T01:27:41.738Z,80.3894043
2022-10-11T01:28:42.334Z,80.3894043
2022-10-11T01:29:43.655Z,80.3894043
2022-10-11T01:30:45.160Z,80.28564453
2022-10-11T01:31:45.614Z,80.3894043
2022-10-11T01:32:46.116Z,80.59082031
2022-10-11T01:33:46.592Z,80.59082031
2022-10-11T01:34:47.677Z,80.3894043
2022-10-11T01:35:48.147Z,80.18798828
2022-10-11T01:36:48.626Z,80.18798828
2022-10-11T01:37:49.099Z,80.28564453
2022-10-11T01:38:49.578Z,80.3894043
2022-10-11T01:39:50.092Z,80.3894043
2022-10-11T01:40:51.650Z,80.48706055
2022-10-11T01:41:52.116Z,80.62744141
2022-10-11T01:42:52.571Z,80.62744141
2022-10-11T01:43:53.064Z,80.52978516
2022-10-11T01:44:53.551Z,80.42602539
2022-10-11T01:45:54.007Z,80.52978516
2022-10-11T01:46:54.523Z,80.52978516
2022-10-11T01:47:55.043Z,80.62744141
2022-10-11T01:48:55.505Z,80.82885742
2022-10-11T01:49:55.969Z,80.82885742
2022-10-11T01:50:57.256Z,80.93261719
2022-10-11T01:51:57.650Z,80.82885742
2022-10-11T01:52:58.148Z,81.03637695
2022-10-11T01:53:58.606Z,80.93261719
2022-10-11T01:55:09.034Z,80.82885742
2022-10-11T01:55:59.599Z,80.73120117
2022-10-11T01:57:00.072Z,80.62744141
2022-10-11T01:58:00.538Z,80.22460938
2022-10-11T01:59:01.924Z,80.42602539
2022-10-11T02:00:02.444Z,80.6640625
2022-10-11T02:01:02.992Z,80.76782227
2022-10-11T02:02:03.388Z,80.96923828
2022-10-11T02:03:04.387Z,81.07299805
2022-10-11T02:04:05.377Z,81.17675781
2022-10-11T02:05:36.152Z,81.17675781
2022-10-11T02:06:36.657Z,81.37817383
2022-10-11T02:07:37.115Z,81.27441406
2022-10-11T02:08:37.584Z,81.27441406
2022-10-11T02:09:38.928Z,81.37817383
2022-10-11T02:10:39.403Z,81.37817383
2022-10-11T02:11:39.858Z,81.37817383
2022-10-11T02:12:40.895Z,81.47583008
2022-10-11T02:13:41.371Z,81.27441406
2022-10-11T02:14:41.846Z,81.17675781
2022-10-11T02:15:42.360Z,81.07299805
2022-10-11T02:16:42.863Z,80.96923828
2022-10-11T02:17:43.377Z,80.56640625
2022-10-11T02:18:43.849Z,80.46264648
2022-10-11T02:19:44.328Z,80.36499023
2022-10-11T02:20:44.817Z,80.26123047
2022-10-11T02:21:45.278Z,80.26123047
2022-10-11T02:22:45.754Z,80.1574707
2022-10-11T02:23:46.288Z,79.95605469
2022-10-11T02:24:46.783Z,79.95605469
2022-10-11T02:25:47.288Z,79.65087891
2022-10-11T02:26:47.726Z,79.65087891
2022-10-11T02:27:48.195Z,79.55322266
2022-10-11T02:28:48.762Z,79.65087891
2022-10-11T02:29:49.159Z,79.44946289
2022-10-11T02:30:50.459Z,79.44946289
2022-10-11T02:31:50.935Z,79.34570313
2022-10-11T02:32:51.398Z,79.34570313
2022-10-11T02:33:51.915Z,79.24804688
2022-10-11T02:34:52.400Z,79.14428711
2022-10-11T02:35:52.881Z,79.14428711
2022-10-11T02:36:53.336Z,79.14428711
2022-10-11T02:37:53.801Z,79.04052734
2022-10-11T02:38:54.284Z,78.94287109
2022-10-11T02:39:55.511Z,78.80249023
2022-10-11T02:40:56.674Z,78.60107422
2022-10-11T02:41:57.136Z,78.3996582
2022-10-11T02:42:57.581Z,78.3996582
2022-10-11T02:43:58.060Z,78.3996582
2022-10-11T02:44:58.563Z,78.53393555
2022-10-11T02:45:59.013Z,78.83911133
2022-10-11T02:46:59.538Z,78.83911133
2022-10-11T02:48:00.010Z,78.94287109
2022-10-11T02:49:00.566Z,78.80249023
2022-10-11T02:50:01.096Z,78.60107422
2022-10-11T02:51:02.228Z,78.3996582
2022-10-11T02:52:02.755Z,78.3996582
2022-10-11T02:53:03.256Z,78.53393555
2022-10-11T02:54:03.760Z,78.49731445
2022-10-11T02:55:04.786Z,78.74145508
2022-10-11T02:56:35.541Z,78.63769531
2022-10-11T02:57:36.047Z,78.63769531
2022-10-11T02:58:36.502Z,78.53393555
2022-10-11T02:59:37.953Z,78.53393555
2022-10-11T03:00:38.569Z,78.53393555
2022-10-11T03:01:40.026Z,78.53393555
2022-10-11T03:02:40.534Z,78.4362793
2022-10-11T03:03:41.033Z,78.4362793
2022-10-11T03:04:41.516Z,78.4362793
2022-10-11T03:05:42.086Z,78.53393555
2022-10-11T03:06:42.647Z,78.53393555
2022-10-11T03:07:43.186Z,78.63769531
2022-10-11T03:08:44.666Z,78.63769531
2022-10-11T03:09:45.162Z,78.63769531
2022-10-11T03:10:45.730Z,78.83911133
2022-10-11T03:11:46.991Z,79.04052734
2022-10-11T03:12:47.541Z,79.04052734
2022-10-11T03:13:48.077Z,79.14428711
2022-10-11T03:14:48.555Z,79.24804688
2022-10-11T03:15:49.444Z,79.04052734
2022-10-11T03:16:51.538Z,78.83911133
2022-10-11T03:17:50.503Z,78.94287109
2022-10-11T03:18:51.014Z,78.94287109
2022-10-11T03:19:51.582Z,78.94287109
2022-10-11T03:20:52.094Z,78.94287109
2022-10-11T03:21:53.401Z,78.94287109
2022-10-11T03:22:56.717Z,78.74145508
2022-10-11T03:23:57.989Z,78.4362793
2022-10-11T03:25:03.694Z,78.33251953
2022-10-11T03:25:59.714Z,78.33251953
2022-10-11T03:27:00.211Z,78.4362793
2022-10-11T03:28:00.691Z,78.22875977
2022-10-11T03:29:01.243Z,77.72216797
2022-10-11T03:30:01.803Z,77.72216797
2022-10-11T03:31:02.404Z,77.82592773
2022-10-11T03:32:03.674Z,77.96630859
2022-10-11T03:33:34.671Z,78.16772461
2022-10-11T03:34:35.379Z,78.16772461
2022-10-11T03:35:35.904Z,78.26538086
2022-10-11T03:36:36.464Z,78.47290039
2022-10-11T03:37:36.996Z,78.47290039
2022-10-11T03:38:38.468Z,78.26538086
2022-10-11T03:39:38.969Z,78.36914063
2022-10-11T03:40:39.536Z,78.26538086
2022-10-11T03:41:40.697Z,78.47290039
2022-10-11T03:42:41.285Z,78.7109375
2022-10-11T03:43:41.767Z,79.32128906
2022-10-11T03:44:42.300Z,79.55932617
2022-10-11T03:45:42.718Z,79.86450195
2022-10-11T03:46:43.320Z,80.16967773
2022-10-11T03:47:43.842Z,80.16967773
2022-10-11T03:48:44.411Z,80.06591797
2022-10-11T03:49:45.708Z,79.82788086
2022-10-11T03:50:46.171Z,79.72412109
2022-10-11T03:51:47.214Z,79.62646484
2022-10-11T03:52:47.833Z,79.32128906
2022-10-11T03:53:48.400Z,79.52270508
2022-10-11T03:54:48.956Z,79.72412109
2022-10-11T03:55:49.469Z,79.62646484
2022-10-11T03:56:50.000Z,79.52270508
2022-10-11T03:57:50.591Z,79.2175293
2022-10-11T03:58:51.130Z,79.01611328
2022-10-11T03:59:51.716Z,79.01611328
2022-10-11T04:00:52.200Z,78.81469727
2022-10-11T04:01:53.234Z,78.7109375
2022-10-11T04:02:53.655Z,78.7109375
2022-10-11T04:03:54.311Z,78.7109375
2022-10-11T04:04:55.729Z,78.50952148
2022-10-11T04:05:56.226Z,78.50952148
2022-10-11T04:06:56.731Z,78.40576172
2022-10-11T04:07:57.268Z,78.26538086
2022-10-11T04:08:57.805Z,78.26538086
2022-10-11T04:09:58.413Z,78.06396484
2022-10-11T04:10:58.910Z,78.16772461
2022-10-11T04:12:00.200Z,78.10058594
2022-10-11T04:13:00.706Z,78.06396484
2022-10-11T04:14:01.199Z,78.06396484
2022-10-11T04:15:01.750Z,77.96630859
2022-10-11T04:16:02.746Z,77.96630859
2022-10-11T04:17:02.872Z,78.00292969
2022-10-11T04:18:34.274Z,78.10058594
2022-10-11T04:19:34.829Z,77.96630859
2022-10-11T04:20:35.387Z,77.96630859
2022-10-11T04:21:36.696Z,77.89916992
2022-10-11T04:22:37.220Z,77.89916992
2022-10-11T04:23:37.718Z,78.00292969
2022-10-11T04:24:38.157Z,78.2043457
2022-10-11T04:25:38.675Z,78.10058594
2022-10-11T04:26:39.185Z,78.00292969
2022-10-11T04:27:39.743Z,77.89916992
2022-10-11T04:28:40.336Z,78.00292969
2022-10-11T04:29:40.823Z,77.89916992
2022-10-11T04:30:41.314Z,78.00292969
2022-10-11T04:31:42.719Z,78.10058594
2022-10-11T04:32:43.267Z,78.2043457
2022-10-11T04:33:43.830Z,78.10058594
2022-10-11T04:34:44.388Z,78.10058594
2022-10-11T04:35:44.897Z,78.2043457
2022-10-11T04:36:49.649Z,78.10058594
2022-10-11T04:37:45.994Z,78.2043457
2022-10-11T04:38:46.631Z,78.2043457
2022-10-11T04:39:48.220Z,78.2043457
2022-10-11T04:40:48.819Z,78.30200195
2022-10-11T04:41:49.352Z,78.30200195
2022-10-11T04:42:49.874Z,78.2043457
2022-10-11T04:43:50.511Z,78.2043457
2022-10-11T04:44:51.055Z,78.10058594
2022-10-11T04:45:55.283Z,78.2043457
2022-10-11T04:46:52.220Z,78.40576172
2022-10-11T04:47:52.721Z,78.40576172
2022-10-11T04:48:53.230Z,78.40576172
2022-10-11T04:49:53.819Z,78.40576172
2022-10-11T04:50:54.405Z,78.50952148
2022-10-11T04:51:55.735Z,78.30200195
2022-10-11T04:52:56.236Z,78.40576172
2022-10-11T04:53:56.714Z,78.40576172
2022-10-11T04:54:57.226Z,78.40576172
2022-10-11T04:55:57.879Z,78.50952148
2022-10-11T04:56:58.616Z,78.60717773
2022-10-11T04:57:59.192Z,78.60717773
2022-10-11T04:58:59.710Z,78.60717773
2022-10-11T05:00:00.235Z,78.50952148
2022-10-11T05:01:00.776Z,78.50952148
2022-10-11T05:02:02.372Z,78.50952148
2022-10-11T05:03:03.288Z,78.40576172
2022-10-11T05:04:34.171Z,78.40576172
2022-10-11T05:05:34.707Z,78.30200195
2022-10-11T05:06:35.330Z,78.40576172
2022-10-11T05:07:35.869Z,78.50952148
2022-10-11T05:08:36.393Z,78.60717773
2022-10-11T05:09:37.700Z,78.81469727
2022-10-11T05:10:38.184Z,78.94897461
2022-10-11T05:11:38.715Z,78.94897461
2022-10-11T05:12:39.244Z,79.15649414
2022-10-11T05:13:40.632Z,79.15649414
2022-10-11T05:14:41.178Z,79.15649414
2022-10-11T05:15:41.714Z,79.2175293
2022-10-11T05:16:42.263Z,79.32128906
2022-10-11T05:17:42.763Z,79.46166992
2022-10-11T05:18:43.462Z,79.41894531
2022-10-11T05:19:44.038Z,79.41894531
2022-10-11T05:20:44.621Z,79.32128906
2022-10-11T05:21:45.139Z,79.2175293
2022-10-11T05:22:46.465Z,79.32128906
2022-10-11T05:23:47.071Z,79.52270508
2022-10-11T05:24:47.656Z,79.62646484
2022-10-11T05:25:48.194Z,79.62646484
2022-10-11T05:26:48.705Z,79.82788086
2022-10-11T05:27:49.209Z,81.14624023
2022-10-11T05:28:49.825Z,81.45141602
2022-10-11T05:29:51.251Z,80.54199219
2022-10-11T05:30:51.783Z,80.23681641
2022-10-11T05:31:52.304Z,80.02929688
2022-10-11T05:32:52.818Z,79.93164063
2022-10-11T05:33:53.926Z,80.02929688
2022-10-11T05:34:54.551Z,80.02929688
2022-10-11T05:35:55.134Z,79.93164063
2022-10-11T05:36:55.718Z,79.6875
2022-10-11T05:37:56.279Z,79.48608398
2022-10-11T05:38:56.799Z,79.48608398
2022-10-11T05:39:57.385Z,79.58984375
2022-10-11T05:40:57.914Z,79.62646484
2022-10-11T05:41:58.472Z,79.62646484
2022-10-11T05:43:00.002Z,79.41894531
2022-10-11T05:44:00.539Z,79.41894531
2022-10-11T05:45:01.080Z,79.41894531
2022-10-11T05:46:01.885Z,79.72412109
2022-10-11T05:47:02.080Z,79.93164063
2022-10-11T05:48:34.017Z,80.02929688
2022-10-11T05:49:34.561Z,80.13305664
2022-10-11T05:50:35.120Z,79.93164063
2022-10-11T05:51:35.568Z,79.72412109
2022-10-11T05:52:37.038Z,79.41894531
2022-10-11T05:53:37.541Z,79.2175293
2022-10-11T05:54:38.952Z,79.32128906
2022-10-11T05:55:39.475Z,79.32128906
2022-10-11T05:56:39.987Z,79.52270508
2022-10-11T05:57:40.482Z,79.62646484
2022-10-11T05:58:41.103Z,79.72412109
2022-10-11T05:59:41.671Z,79.82788086
2022-10-11T06:00:42.204Z,79.82788086
2022-10-11T06:01:42.810Z,79.82788086
2022-10-11T06:02:43.171Z,79.82788086
2022-10-11T06:03:43.721Z,80.02929688
2022-10-11T06:04:44.269Z,79.93164063
2022-10-11T06:05:44.828Z,79.62646484
2022-10-11T06:06:45.308Z,79.62646484
2022-10-11T06:07:45.818Z,79.72412109
2022-10-11T06:08:46.299Z,79.62646484
2022-10-11T06:09:46.847Z,79.62646484
2022-10-11T06:10:48.001Z,79.72412109
2022-10-11T06:11:48.517Z,79.82788086
2022-10-11T06:12:49.087Z,79.93164063
2022-10-11T06:13:50.511Z,80.02929688
2022-10-11T06:14:50.996Z,80.02929688
2022-10-11T06:15:51.572Z,79.93164063
2022-10-11T06:16:52.116Z,79.82788086
2022-10-11T06:17:52.674Z,79.72412109
2022-10-11T06:18:53.222Z,79.82788086
2022-10-11T06:19:53.751Z,79.82788086
2022-10-11T06:20:54.282Z,79.82788086
2022-10-11T06:21:54.846Z,79.82788086
2022-10-11T06:22:56.059Z,79.93164063
2022-10-11T06:24:01.142Z,79.93164063
2022-10-11T06:24:57.166Z,80.02929688
2022-10-11T06:25:57.674Z,80.23681641
2022-10-11T06:26:58.180Z,80.23681641
2022-10-11T06:27:58.784Z,80.23681641
2022-10-11T06:28:59.374Z,80.2734375
2022-10-11T06:29:59.879Z,80.47485352
2022-10-11T06:31:00.434Z,80.67626953
2022-10-11T06:32:00.918Z,80.57861328
2022-10-11T06:33:32.698Z,80.47485352
2022-10-11T06:34:33.271Z,80.57861328
2022-10-11T06:35:34.756Z,80.67626953
2022-10-11T06:36:35.252Z,80.54199219
2022-10-11T06:37:35.759Z,80.43823242
2022-10-11T06:38:39.797Z,80.43823242
2022-10-11T06:39:36.929Z,80.33447266
2022-10-11T06:40:37.507Z,80.13305664
2022-10-11T06:41:37.975Z,80.13305664
2022-10-11T06:42:39.194Z,80.13305664
2022-10-11T06:43:39.679Z,80.02929688
2022-10-11T06:44:40.276Z,80.02929688
2022-10-11T06:45:40.881Z,79.72412109
2022-10-11T06:46:41.398Z,79.62646484
2022-10-11T06:47:41.952Z,79.52270508
2022-10-11T06:48:42.451Z,79.62646484
2022-10-11T06:49:43.082Z,79.62646484
2022-10-11T06:50:58.975Z,79.82788086
2022-10-11T06:51:44.201Z,79.72412109
2022-10-11T06:52:45.695Z,79.82788086
2022-10-11T06:53:46.187Z,79.62646484
2022-10-11T06:54:46.727Z,79.72412109
2022-10-11T06:55:47.297Z,79.6875
2022-10-11T06:56:47.845Z,79.58984375
2022-10-11T06:57:49.215Z,79.6875
2022-10-11T06:58:49.750Z,79.79125977
2022-10-11T06:59:50.511Z,79.82788086
2022-10-11T07:00:51.071Z,79.89501953
2022-10-11T07:01:52.246Z,79.89501953
2022-10-11T07:02:53.745Z,79.6875
2022-10-11T07:03:54.342Z,79.6875
2022-10-11T07:04:54.804Z,79.79125977
2022-10-11T07:05:58.987Z,79.58984375
2022-10-11T07:06:55.759Z,79.6875
2022-10-11T07:07:56.350Z,79.79125977
2022-10-11T07:08:56.914Z,79.89501953
2022-10-11T07:09:57.545Z,79.89501953
2022-10-11T07:10:58.075Z,79.89501953
2022-10-11T07:11:58.538Z,79.89501953
2022-10-11T07:12:59.774Z,79.89501953
2022-10-11T07:14:00.369Z,79.79125977
2022-10-11T07:15:00.891Z,79.79125977
2022-10-11T07:16:32.026Z,79.79125977
2022-10-11T07:17:32.493Z,79.79125977
2022-10-11T07:18:34.030Z,79.79125977
2022-10-11T07:19:34.543Z,79.6875
2022-10-11T07:20:35.062Z,79.55322266
2022-10-11T07:21:36.200Z,79.44946289
2022-10-11T07:22:36.673Z,79.55322266
2022-10-11T07:23:38.034Z,79.44946289
2022-10-11T07:24:38.593Z,79.34570313
2022-10-11T07:25:39.125Z,79.34570313
2022-10-11T07:26:40.461Z,79.34570313
2022-10-11T07:27:40.980Z,79.44946289
2022-10-11T07:28:42.343Z,79.34570313
2022-10-11T07:29:42.860Z,79.24804688
2022-10-11T07:30:44.203Z,79.14428711
2022-10-11T07:31:44.755Z,78.94287109
2022-10-11T07:32:45.330Z,79.04052734
2022-10-11T07:33:46.608Z,78.83911133
2022-10-11T07:34:47.337Z,78.74145508
2022-10-11T07:35:48.860Z,78.83911133
2022-10-11T07:36:49.545Z,79.04052734
2022-10-11T07:37:50.126Z,78.94287109
2022-10-11T07:38:50.936Z,79.04052734
2022-10-11T07:39:51.759Z,79.14428711
2022-10-11T07:40:53.271Z,79.34570313
2022-10-11T07:41:54.061Z,79.44946289
2022-10-11T07:42:54.775Z,79.65087891
2022-10-11T07:43:55.996Z,80.36499023
2022-10-11T07:44:56.592Z,80.76782227
2022-10-11T07:45:57.531Z,80.56640625
2022-10-11T07:46:58.206Z,80.76782227
2022-10-11T07:47:58.895Z,80.6640625
2022-10-11T07:48:59.466Z,80.76782227
2022-10-11T07:50:00.785Z,81.07299805
2022-10-11T07:51:31.792Z,81.17675781
2022-10-11T07:52:32.541Z,81.07299805
2022-10-11T07:53:34.002Z,80.87158203
2022-10-11T07:54:34.564Z,80.42602539
2022-10-11T07:55:35.168Z,80.32226563
2022-10-11T07:56:35.851Z,79.91943359
2022-10-11T07:57:36.548Z,79.91943359
2022-10-11T07:58:37.249Z,80.12084961
2022-10-11T07:59:37.783Z,80.12084961
2022-10-11T08:00:38.378Z,80.12084961
2022-10-11T08:01:38.954Z,80.22460938
2022-10-11T08:02:39.694Z,80.32226563
2022-10-11T08:03:41.043Z,80.22460938
2022-10-11T08:04:41.646Z,80.22460938
2022-10-11T08:05:42.751Z,79.81567383
2022-10-11T08:06:43.289Z,79.81567383
2022-10-11T08:07:44.044Z,79.71801758
2022-10-11T08:08:44.743Z,79.71801758
2022-10-11T08:09:45.393Z,79.61425781
2022-10-11T08:10:46.037Z,79.4128418
2022-10-11T08:11:46.527Z,79.4128418
2022-10-11T08:12:47.143Z,79.21142578
2022-10-11T08:13:48.624Z,79.21142578
2022-10-11T08:14:49.249Z,79.21142578
2022-10-11T08:15:49.842Z,79.30908203
2022-10-11T08:16:50.497Z,79.61425781
2022-10-11T08:17:51.009Z,79.91943359
2022-10-11T08:18:51.667Z,79.91943359
2022-10-11T08:19:52.356Z,79.71801758
2022-10-11T08:20:53.609Z,79.81567383
2022-10-11T08:21:54.073Z,79.91943359
2022-10-11T08:22:54.582Z,79.81567383
2022-10-11T08:23:55.164Z,79.61425781
2022-10-11T08:24:56.555Z,79.4128418
2022-10-11T08:25:57.208Z,79.4128418
2022-10-11T08:26:57.783Z,79.27246094
2022-10-11T08:27:58.244Z,79.16870117
2022-10-11T08:28:58.955Z,79.07104492
2022-10-11T08:29:59.653Z,78.96728516
2022-10-11T08:31:00.755Z,78.86962891
2022-10-11T08:32:31.594Z,78.76586914
2022-10-11T08:33:32.729Z,78.76586914
2022-10-11T08:34:33.191Z,78.76586914
2022-10-11T08:35:33.812Z,78.46069336
2022-10-11T08:36:35.055Z,78.46069336
2022-10-11T08:37:35.649Z,78.36303711
2022-10-11T08:38:36.130Z,78.36303711
2022-10-11T08:39:36.622Z,78.36303711
2022-10-11T08:40:37.189Z,78.36303711
2022-10-11T08:41:37.868Z,78.36303711
2022-10-11T08:42:38.516Z,78.36303711
2022-10-11T08:43:39.717Z,78.36303711
2022-10-11T08:45:13.874Z,78.25927734
2022-10-11T08:45:40.687Z,78.15551758
2022-10-11T08:46:41.387Z,77.95410156
2022-10-11T08:47:41.927Z,78.25927734
2022-10-11T08:48:42.509Z,78.56445313
2022-10-11T08:49:43.076Z,78.52783203
2022-10-11T08:50:43.631Z,78.52783203
2022-10-11T08:51:44.152Z,78.72924805
2022-10-11T08:52:44.849Z,79.13208008
2022-10-11T08:53:46.297Z,79.54101563
2022-10-11T08:54:46.821Z,79.74243164
2022-10-11T08:55:47.328Z,79.03442383
2022-10-11T08:56:47.847Z,79.13208008
2022-10-11T08:57:48.414Z,79.43725586
2022-10-11T08:58:49.073Z,79.84619141
2022-10-11T08:59:49.750Z,79.94384766
2022-10-11T09:00:50.490Z,79.90722656
2022-10-11T09:01:51.083Z,80.10864258
2022-10-11T09:03:07.465Z,80.21240234
2022-10-11T09:03:52.801Z,80.21240234
2022-10-11T09:04:53.420Z,80.01098633
2022-10-11T09:05:53.971Z,79.60205078
2022-10-11T09:06:55.478Z,79.19921875
2022-10-11T09:07:55.951Z,79.09545898
2022-10-11T09:08:56.586Z,79.296875
2022-10-11T09:09:57.236Z,79.296875
2022-10-11T09:10:57.863Z,79.296875
2022-10-11T09:11:58.367Z,79.96826172
2022-10-11T09:12:58.841Z,80.2734375
2022-10-11T09:14:00.328Z,80.37719727
2022-10-11T09:15:31.320Z,80.17578125
2022-10-11T09:16:31.904Z,80.17578125
2022-10-11T09:17:32.436Z,79.96826172
2022-10-11T09:18:32.902Z,79.96826172
2022-10-11T09:19:33.518Z,79.7668457
2022-10-11T09:20:35.014Z,79.7668457
2022-10-11T09:21:35.651Z,79.87060547
2022-10-11T09:22:36.217Z,80.17578125
2022-10-11T09:23:37.222Z,80.37719727
2022-10-11T09:24:37.721Z,80.13305664
2022-10-11T09:25:38.394Z,80.43823242
2022-10-11T09:26:39.052Z,80.43823242
2022-10-11T09:28:01.341Z,80.43823242
2022-10-11T09:28:40.187Z,80.43823242
2022-10-11T09:29:40.624Z,80.23681641
2022-10-11T09:30:41.119Z,79.73022461
2022-10-11T09:31:41.802Z,79.62646484
2022-10-11T09:32:42.407Z,79.73022461
2022-10-11T09:33:43.720Z,79.62646484
2022-10-11T09:34:44.249Z,79.62646484
2022-10-11T09:35:44.772Z,79.73022461
2022-10-11T09:36:45.258Z,79.58984375
2022-10-11T09:37:45.881Z,79.4921875
2022-10-11T09:38:46.623Z,79.4921875
2022-10-11T09:39:47.227Z,79.58984375
2022-10-11T09:40:48.473Z,79.29077148
2022-10-11T09:41:48.919Z,79.18701172
2022-10-11T09:42:49.574Z,79.08325195
2022-10-11T09:43:50.777Z,78.9855957
2022-10-11T09:44:51.389Z,78.9855957
2022-10-11T09:45:51.828Z,79.08325195
2022-10-11T09:46:52.325Z,79.04663086
2022-10-11T09:47:52.921Z,79.25415039
2022-10-11T09:48:53.518Z,79.25415039
2022-10-11T09:49:54.151Z,78.94897461
2022-10-11T09:50:54.766Z,78.84521484
2022-10-11T09:51:55.276Z,78.54614258
2022-10-11T09:52:56.506Z,78.54614258
2022-10-11T09:53:57.771Z,78.64379883
2022-10-11T09:54:58.368Z,78.74755859
2022-10-11T09:55:58.905Z,79.11376953
2022-10-11T09:57:30.037Z,79.51660156
2022-10-11T09:58:30.544Z,80.02319336
2022-10-11T09:59:31.094Z,79.71801758
2022-10-11T10:00:31.740Z,79.11376953
2022-10-11T10:01:32.481Z,78.7109375
2022-10-11T10:02:33.006Z,77.89916992
2022-10-11T10:03:33.517Z,77.96630859
2022-10-11T10:04:35.094Z,77.76489258
2022-10-11T10:05:35.746Z,77.66113281
2022-10-11T10:06:37.309Z,77.86254883
2022-10-11T10:07:37.883Z,78.06396484
2022-10-11T10:08:38.408Z,77.96630859
2022-10-11T10:09:38.941Z,77.86254883
2022-10-11T10:10:39.693Z,77.9296875
2022-10-11T10:11:40.412Z,77.9296875
2022-10-11T10:12:41.048Z,77.62451172
2022-10-11T10:13:41.669Z,77.31933594
2022-10-11T10:14:43.056Z,77.31933594
2022-10-11T10:15:43.627Z,76.91650391
2022-10-11T10:16:44.483Z,76.81884766
2022-10-11T10:17:45.757Z,76.71508789
2022-10-11T10:18:46.375Z,76.61743164
2022-10-11T10:19:46.982Z,76.58081055
2022-10-11T10:20:47.611Z,76.78222656
2022-10-11T10:21:49.230Z,76.6784668
2022-10-11T10:22:49.957Z,76.17797852
2022-10-11T10:23:50.634Z,76.07421875
2022-10-11T10:24:52.009Z,76.37939453
2022-10-11T10:25:52.555Z,76.37939453
2022-10-11T10:26:54.021Z,76.58081055
2022-10-11T10:27:54.725Z,76.6418457
2022-10-11T10:28:55.467Z,76.94702148
2022-10-11T10:29:56.160Z,76.6418457
2022-10-11T10:30:56.802Z,75.93994141
2022-10-11T10:32:14.741Z,76.03759766
2022-10-11T10:32:58.646Z,76.03759766
2022-10-11T10:34:30.255Z,76.00097656
2022-10-11T10:35:31.032Z,76.00097656
2022-10-11T10:36:32.245Z,76.20239258
2022-10-11T10:37:32.836Z,76.50756836
2022-10-11T10:38:33.494Z,76.40380859
2022-10-11T10:39:34.122Z,75.90332031
2022-10-11T10:40:34.722Z,75.76293945
2022-10-11T10:41:35.269Z,74.95727539
2022-10-11T10:42:36.759Z,75.06103516
2022-10-11T10:43:37.479Z,75.26245117
2022-10-11T10:44:39.071Z,75.15869141
2022-10-11T10:45:39.806Z,74.75585938
2022-10-11T10:46:40.334Z,74.65820313
2022-10-11T10:47:40.854Z,74.75585938
2022-10-11T10:49:12.053Z,74.92675781
2022-10-11T10:49:53.592Z,74.92675781
2022-10-11T10:50:42.671Z,74.62158203
2022-10-11T10:51:43.751Z,74.52392578
2022-10-11T10:52:44.219Z,74.32250977
2022-10-11T10:53:44.740Z,74.52392578
2022-10-11T10:54:46.000Z,74.42016602
2022-10-11T10:55:46.716Z,74.32250977
2022-10-11T10:56:47.310Z,74.62158203
2022-10-11T10:57:47.940Z,74.52392578
2022-10-11T10:58:48.467Z,74.62158203
2022-10-11T10:59:48.997Z,74.32250977
2022-10-11T11:00:49.613Z,74.42016602
2022-10-11T11:01:50.554Z,73.91967773
2022-10-11T11:02:51.101Z,74.21875
2022-10-11T11:03:51.647Z,74.48730469
2022-10-11T11:04:53.062Z,73.88305664
2022-10-11T11:05:53.593Z,73.48022461